Time;durP1;ratioP1;P1;durP2;ratioP2;P2;SDS_P1;SDS_P2;PMS_P1;PMS_P2;Temp;Humidity;BMP_temperature;BMP_pressure;BME280_temperature;BME280_humidity;BME280_pressure;Samples;Min_cycle;Max_cycle;Signal;HPM_P1;HPM_P2
2023/10/20 00:00:20;;;;;;;8.70;7.00;;;;;;;;;;6218996;23;20020;-86
2023/10/20 00:02:47;;;;;;;8.25;6.78;;;;;;;;;;6219232;23;20016;-86
2023/10/20 00:05:14;;;;;;;8.20;6.63;;;;;;;;;;6219029;23;20387;-86
2023/10/20 00:07:40;;;;;;;9.70;7.32;;;;;;;;;;6219119;23;20150;-86
2023/10/20 00:10:09;;;;;;;9.65;6.72;;;;;;;;;;6218997;23;20027;-86
2023/10/20 00:12:35;;;;;;;10.45;8.13;;;;;;;;;;6218966;23;20043;-86
2023/10/20 00:15:01;;;;;;;10.63;7.13;;;;;;;;;;6218487;23;20016;-86
2023/10/20 00:17:27;;;;;;;10.38;7.13;;;;;;;;;;6219071;23;20016;-86
2023/10/20 00:19:55;;;;;;;9.43;7.68;;;;;;;;;;6193369;23;20016;-86
2023/10/20 00:22:21;;;;;;;10.77;7.50;;;;;;;;;;6219092;23;20016;-86
2023/10/20 00:24:47;;;;;;;9.02;7.30;;;;;;;;;;6232537;23;20016;-85
2023/10/20 00:27:13;;;;;;;9.73;7.60;;;;;;;;;;6231185;23;20047;-85
2023/10/20 00:29:40;;;;;;;10.70;7.97;;;;;;;;;;6220140;23;20372;-86
2023/10/20 00:32:07;;;;;;;10.30;8.15;;;;;;;;;;6194494;23;20095;-86
2023/10/20 00:34:33;;;;;;;8.60;6.88;;;;;;;;;;6218761;23;20016;-86
2023/10/20 00:36:59;;;;;;;9.93;7.32;;;;;;;;;;6219196;23;20020;-86
2023/10/20 00:39:25;;;;;;;12.13;8.27;;;;;;;;;;6218999;23;20047;-86
2023/10/20 00:41:51;;;;;;;9.40;7.47;;;;;;;;;;6218994;23;20020;-86
2023/10/20 00:44:17;;;;;;;8.77;7.45;;;;;;;;;;6219437;23;20013;-86
2023/10/20 00:46:43;;;;;;;8.40;7.20;;;;;;;;;;6218675;23;20315;-86
2023/10/20 00:49:10;;;;;;;8.63;7.30;;;;;;;;;;6193828;23;20016;-86
2023/10/20 00:51:37;;;;;;;9.73;7.07;;;;;;;;;;6218629;23;20071;-86
2023/10/20 00:54:03;;;;;;;9.75;7.63;;;;;;;;;;6218429;23;20016;-86
2023/10/20 00:56:30;;;;;;;8.43;6.65;;;;;;;;;;6218261;23;20028;-86
2023/10/20 00:58:57;;;;;;;9.98;6.82;;;;;;;;;;6218379;23;20089;-86
2023/10/20 01:01:23;;;;;;;9.88;6.80;;;;;;;;;;6218402;23;20026;-86
2023/10/20 01:03:49;;;;;;;9.32;7.68;;;;;;;;;;6218673;23;20048;-86
2023/10/20 01:06:15;;;;;;;10.18;7.95;;;;;;;;;;6218813;23;20016;-86
2023/10/20 01:08:41;;;;;;;10.38;7.97;;;;;;;;;;6218713;23;20449;-86
2023/10/20 01:11:07;;;;;;;9.63;6.22;;;;;;;;;;6217684;23;20123;-86
2023/10/20 01:13:33;;;;;;;10.63;7.20;;;;;;;;;;6216738;23;20055;-86
2023/10/20 01:16:00;;;;;;;10.73;7.32;;;;;;;;;;6218314;23;20460;-86
2023/10/20 01:18:26;;;;;;;10.85;7.68;;;;;;;;;;6218662;23;20095;-86
2023/10/20 01:20:52;;;;;;;9.80;7.28;;;;;;;;;;6218282;23;20019;-86
2023/10/20 01:23:18;;;;;;;9.07;7.05;;;;;;;;;;6218172;23;20498;-86
2023/10/20 01:25:44;;;;;;;12.45;7.80;;;;;;;;;;6218128;23;20104;-86
2023/10/20 01:28:10;;;;;;;9.35;6.95;;;;;;;;;;6217957;23;20098;-86
2023/10/20 01:30:36;;;;;;;10.73;7.72;;;;;;;;;;6218497;23;20423;-86
2023/10/20 01:33:02;;;;;;;11.15;7.93;;;;;;;;;;6218009;23;20022;-86
2023/10/20 01:35:28;;;;;;;12.05;8.02;;;;;;;;;;6218667;23;20175;-86
2023/10/20 01:37:54;;;;;;;9.63;7.30;;;;;;;;;;6217967;23;20016;-86
2023/10/20 01:40:21;;;;;;;9.75;7.32;;;;;;;;;;6193133;23;20086;-86
2023/10/20 01:42:47;;;;;;;8.88;6.93;;;;;;;;;;6218140;23;20016;-86
2023/10/20 01:45:13;;;;;;;8.30;6.80;;;;;;;;;;6217642;23;20444;-86
2023/10/20 01:47:40;;;;;;;10.55;7.45;;;;;;;;;;6217403;23;20023;-86
2023/10/20 01:50:06;;;;;;;12.32;7.68;;;;;;;;;;6218456;23;20034;-86
2023/10/20 01:52:32;;;;;;;10.00;7.25;;;;;;;;;;6218186;23;20012;-86
2023/10/20 01:54:58;;;;;;;11.73;7.57;;;;;;;;;;6218263;23;20149;-86
2023/10/20 01:57:25;;;;;;;9.50;6.78;;;;;;;;;;6217722;23;20023;-86
2023/10/20 01:59:51;;;;;;;8.63;6.82;;;;;;;;;;6217502;23;20016;-86
2023/10/20 02:02:17;;;;;;;7.20;6.05;;;;;;;;;;6217452;23;20027;-86
2023/10/20 02:04:43;;;;;;;8.25;6.38;;;;;;;;;;6217904;23;20012;-86
2023/10/20 02:07:09;;;;;;;9.18;6.70;;;;;;;;;;6218015;23;20041;-86
2023/10/20 02:09:35;;;;;;;8.10;5.95;;;;;;;;;;6217769;23;20086;-86
2023/10/20 02:12:03;;;;;;;9.48;6.50;;;;;;;;;;6222925;23;20012;-86
2023/10/20 02:14:30;;;;;;;8.18;6.00;;;;;;;;;;6228074;23;20421;-86
2023/10/20 02:16:56;;;;;;;8.68;5.07;;;;;;;;;;6230851;23;20103;-86
2023/10/20 02:19:23;;;;;;;10.10;6.13;;;;;;;;;;6221995;23;20027;-86
2023/10/20 02:21:49;;;;;;;8.60;6.40;;;;;;;;;;6220200;23;20032;-86
2023/10/20 02:24:15;;;;;;;10.38;6.78;;;;;;;;;;6220448;23;20073;-86
2023/10/20 02:26:41;;;;;;;10.65;7.70;;;;;;;;;;6219247;23;20016;-86
2023/10/20 02:29:07;;;;;;;11.55;7.82;;;;;;;;;;6220215;23;20020;-86
2023/10/20 02:31:33;;;;;;;10.43;7.82;;;;;;;;;;6219904;23;20012;-86
2023/10/20 02:33:59;;;;;;;10.30;7.20;;;;;;;;;;6220060;23;20070;-86
2023/10/20 02:36:25;;;;;;;14.93;8.32;;;;;;;;;;6220014;23;20396;-86
2023/10/20 02:38:55;;;;;;;14.68;9.93;;;;;;;;;;6220079;23;20097;-86
2023/10/20 02:41:21;;;;;;;18.30;10.60;;;;;;;;;;6219435;23;20021;-86
2023/10/20 02:43:47;;;;;;;16.27;10.27;;;;;;;;;;6220072;23;20483;-86
2023/10/20 02:46:13;;;;;;;19.65;10.57;;;;;;;;;;6220037;23;20101;-86
2023/10/20 02:48:39;;;;;;;18.48;11.05;;;;;;;;;;6220346;23;20535;-86
2023/10/20 02:51:12;;;;;;;20.05;12.43;;;;;;;;;;6219635;23;20020;-86
2023/10/20 02:53:41;;;;;;;18.13;11.18;;;;;;;;;;6226996;23;20027;-86
2023/10/20 02:56:12;;;;;;;22.65;12.88;;;;;;;;;;6221833;23;20023;-86
2023/10/20 02:58:38;;;;;;;22.73;12.98;;;;;;;;;;6221089;23;20091;-86
2023/10/20 03:01:07;;;;;;;19.65;11.32;;;;;;;;;;6221552;23;20013;-86
2023/10/20 03:03:33;;;;;;;21.60;13.32;;;;;;;;;;6221075;23;20344;-86
2023/10/20 03:06:01;;;;;;;26.38;14.18;;;;;;;;;;6220504;23;20472;-86
2023/10/20 03:08:29;;;;;;;31.85;15.90;;;;;;;;;;6220458;23;20016;-86
2023/10/20 03:10:55;;;;;;;25.83;14.38;;;;;;;;;;6195188;23;20031;-85
2023/10/20 03:13:22;;;;;;;25.98;13.07;;;;;;;;;;6195517;23;20099;-85
2023/10/20 03:15:48;;;;;;;24.25;15.48;;;;;;;;;;6220025;23;20442;-85
2023/10/20 03:18:14;;;;;;;25.30;13.55;;;;;;;;;;6219757;23;20337;-86
2023/10/20 03:20:40;;;;;;;28.23;15.02;;;;;;;;;;6218962;23;20024;-86
2023/10/20 03:23:07;;;;;;;22.25;13.77;;;;;;;;;;6219476;23;20020;-86
2023/10/20 03:25:33;;;;;;;27.88;15.05;;;;;;;;;;6219732;23;20448;-86
2023/10/20 03:27:59;;;;;;;27.67;15.82;;;;;;;;;;6218824;23;20448;-86
2023/10/20 03:30:25;;;;;;;27.80;15.05;;;;;;;;;;6219255;23;20474;-86
2023/10/20 03:32:51;;;;;;;23.27;13.80;;;;;;;;;;6220413;23;20119;-86
2023/10/20 03:35:17;;;;;;;25.33;14.82;;;;;;;;;;6224084;23;20016;-86
2023/10/20 03:37:43;;;;;;;23.27;13.65;;;;;;;;;;6223414;23;20397;-85
2023/10/20 03:40:13;;;;;;;26.65;14.50;;;;;;;;;;6220545;23;20016;-85
2023/10/20 03:42:43;;;;;;;27.02;15.60;;;;;;;;;;6219625;23;20020;-86
2023/10/20 03:45:10;;;;;;;22.45;13.45;;;;;;;;;;6218811;23;20020;-86
2023/10/20 03:47:39;;;;;;;25.60;14.70;;;;;;;;;;6218900;23;20027;-86
2023/10/20 03:50:17;;;;;;;22.80;13.30;;;;;;;;;;6219595;23;20065;-86
2023/10/20 03:52:46;;;;;;;21.02;12.52;;;;;;;;;;6219960;23;20012;-86
2023/10/20 03:55:15;;;;;;;23.73;13.63;;;;;;;;;;6219275;23;20020;-86
2023/10/20 03:57:47;;;;;;;22.30;13.07;;;;;;;;;;6218268;23;20023;-86
2023/10/20 04:00:17;;;;;;;20.27;12.43;;;;;;;;;;6219150;23;20020;-86
2023/10/20 04:02:46;;;;;;;20.38;12.35;;;;;;;;;;6219097;23;20035;-86
2023/10/20 04:05:13;;;;;;;22.75;13.55;;;;;;;;;;6222450;23;20349;-86
2023/10/20 04:07:39;;;;;;;16.02;11.70;;;;;;;;;;6231190;23;20016;-85
2023/10/20 04:10:06;;;;;;;18.80;11.63;;;;;;;;;;6232320;23;20028;-85
2023/10/20 04:12:32;;;;;;;17.25;11.32;;;;;;;;;;6221723;23;20023;-86
2023/10/20 04:14:58;;;;;;;19.48;12.10;;;;;;;;;;6219973;23;20012;-86
2023/10/20 04:17:24;;;;;;;15.15;11.40;;;;;;;;;;6246717;23;20016;-86
2023/10/20 04:19:50;;;;;;;16.27;10.80;;;;;;;;;;6220425;23;20019;-86
2023/10/20 04:22:19;;;;;;;19.13;11.23;;;;;;;;;;6219025;23;20457;-86
2023/10/20 04:24:45;;;;;;;18.17;11.57;;;;;;;;;;6218922;23;20012;-86
2023/10/20 05:07:52;;;;;;;11.57;8.45;;;;;;;;;;6218653;23;20031;-85
2023/10/20 05:10:21;;;;;;;12.60;8.68;;;;;;;;;;6218614;23;20046;-85
2023/10/20 05:12:48;;;;;;;11.52;8.65;;;;;;;;;;6217805;23;20443;-85
2023/10/20 05:15:14;;;;;;;12.25;8.18;;;;;;;;;;6218403;23;20074;-86
2023/10/20 05:17:40;;;;;;;13.45;8.25;;;;;;;;;;6215050;23;20347;-86
2023/10/20 05:20:13;;;;;;;10.55;8.05;;;;;;;;;;6218564;23;20020;-85
2023/10/20 05:22:40;;;;;;;10.50;7.20;;;;;;;;;;6245812;23;20360;-86
2023/10/20 05:25:06;;;;;;;11.48;7.45;;;;;;;;;;6217820;23;20016;-86
2023/10/20 05:27:32;;;;;;;10.65;7.25;;;;;;;;;;6217919;23;20395;-85
2023/10/20 05:29:58;;;;;;;8.73;6.82;;;;;;;;;;6218564;23;20056;-85
2023/10/20 05:32:24;;;;;;;9.85;6.85;;;;;;;;;;6218785;23;20012;-86
2023/10/20 05:34:59;;;;;;;9.45;6.82;;;;;;;;;;6218470;23;20020;-85
2023/10/20 05:37:25;;;;;;;10.82;7.55;;;;;;;;;;6218358;23;20047;-85
2023/10/20 05:39:52;;;;;;;7.95;6.32;;;;;;;;;;6244018;23;20026;-86
2023/10/20 05:42:18;;;;;;;10.35;7.38;;;;;;;;;;6218194;23;20039;-86
2023/10/20 05:44:58;;;;;;;9.43;6.50;;;;;;;;;;6218289;23;20087;-86
2023/10/20 05:47:24;;;;;;;8.63;6.03;;;;;;;;;;6218084;23;20024;-86
2023/10/20 05:49:50;;;;;;;7.40;5.45;;;;;;;;;;6218268;23;20502;-86
2023/10/20 05:52:16;;;;;;;7.82;5.72;;;;;;;;;;6216939;23;20066;-87
2023/10/20 05:54:43;;;;;;;5.90;4.78;;;;;;;;;;6218171;23;20095;-86
2023/10/20 05:57:09;;;;;;;6.57;5.20;;;;;;;;;;6244913;23;20023;-86
2023/10/20 05:59:35;;;;;;;6.32;4.75;;;;;;;;;;6218507;23;20013;-85
2023/10/20 06:02:03;;;;;;;6.18;4.45;;;;;;;;;;6223358;23;20024;-85
2023/10/20 06:04:29;;;;;;;5.80;4.07;;;;;;;;;;6207514;23;20020;-85
2023/10/20 06:06:56;;;;;;;5.63;4.05;;;;;;;;;;6226778;23;20016;-85
2023/10/20 06:09:25;;;;;;;6.20;4.10;;;;;;;;;;6218784;23;20012;-85
2023/10/20 06:11:53;;;;;;;5.60;3.88;;;;;;;;;;6217655;23;20012;-85
2023/10/20 06:14:20;;;;;;;5.75;4.30;;;;;;;;;;6218427;23;20032;-85
2023/10/20 06:16:46;;;;;;;6.20;3.88;;;;;;;;;;6218213;23;20491;-86
2023/10/20 06:19:12;;;;;;;5.78;3.60;;;;;;;;;;6218510;23;20111;-85
2023/10/20 06:21:42;;;;;;;4.25;3.63;;;;;;;;;;6217671;23;20171;-85
2023/10/20 06:24:08;;;;;;;6.13;4.38;;;;;;;;;;6245856;23;20020;-85
2023/10/20 06:26:35;;;;;;;5.80;4.10;;;;;;;;;;6217929;23;20012;-85
2023/10/20 06:29:01;;;;;;;4.32;3.40;;;;;;;;;;6218320;23;20020;-85
2023/10/20 06:36:48;;;;;;;7.00;4.22;;;;;;;;;;6243877;23;20055;-85
2023/10/20 06:39:14;;;;;;;5.45;4.13;;;;;;;;;;6218953;23;20070;-85
2023/10/20 06:41:41;;;;;;;4.85;4.07;;;;;;;;;;6217920;23;20031;-85
2023/10/20 06:44:08;;;;;;;6.03;3.30;;;;;;;;;;6216665;23;20016;-85
2023/10/20 06:46:35;;;;;;;6.85;4.78;;;;;;;;;;6217403;23;20027;-85
2023/10/20 06:49:01;;;;;;;6.43;4.47;;;;;;;;;;6218550;23;20020;-85
2023/10/20 06:51:28;;;;;;;6.65;4.60;;;;;;;;;;6245410;23;20054;-85
2023/10/20 06:53:54;;;;;;;7.13;4.70;;;;;;;;;;6218259;23;20020;-86
2023/10/20 06:56:20;;;;;;;5.70;4.32;;;;;;;;;;6217326;23;20023;-85
2023/10/20 06:58:47;;;;;;;6.22;4.35;;;;;;;;;;6218173;23;20027;-85
2023/10/20 07:01:13;;;;;;;5.50;4.22;;;;;;;;;;6218358;23;20175;-85
2023/10/20 07:03:39;;;;;;;5.40;4.03;;;;;;;;;;6219500;23;20016;-85
2023/10/20 07:06:10;;;;;;;6.43;4.90;;;;;;;;;;6219107;23;20016;-85
2023/10/20 07:08:36;;;;;;;5.93;4.43;;;;;;;;;;6218774;23;20039;-85
2023/10/20 07:11:05;;;;;;;5.95;4.55;;;;;;;;;;6219664;23;20020;-85
2023/10/20 07:13:32;;;;;;;7.18;4.57;;;;;;;;;;6246310;23;20019;-85
2023/10/20 07:15:58;;;;;;;6.07;4.40;;;;;;;;;;6246419;23;20012;-85
2023/10/20 07:18:24;;;;;;;5.95;4.40;;;;;;;;;;6219181;23;20105;-85
2023/10/20 07:20:52;;;;;;;5.85;4.32;;;;;;;;;;6220027;23;20102;-85
2023/10/20 07:23:18;;;;;;;6.20;4.57;;;;;;;;;;6218738;23;20083;-85
2023/10/20 07:25:44;;;;;;;6.28;4.63;;;;;;;;;;6219289;23;20381;-85
2023/10/20 07:28:11;;;;;;;8.10;4.95;;;;;;;;;;6219014;23;20092;-86
2023/10/20 07:30:37;;;;;;;5.22;3.85;;;;;;;;;;6245878;23;20171;-86
2023/10/20 07:33:03;;;;;;;6.85;4.75;;;;;;;;;;6246290;23;20016;-86
2023/10/20 07:35:30;;;;;;;6.00;4.53;;;;;;;;;;6246532;23;20479;-85
2023/10/20 07:37:57;;;;;;;5.63;4.13;;;;;;;;;;6217673;23;20116;-86
2023/10/20 07:40:26;;;;;;;6.88;4.15;;;;;;;;;;6219117;23;20019;-86
2023/10/20 07:42:53;;;;;;;5.82;3.92;;;;;;;;;;6217776;23;20349;-87
2023/10/20 07:45:19;;;;;;;4.43;3.80;;;;;;;;;;6193301;23;20322;-86
2023/10/20 07:47:46;;;;;;;4.93;4.10;;;;;;;;;;6218821;23;20031;-86
2023/10/20 07:50:12;;;;;;;5.55;4.10;;;;;;;;;;6194391;23;20065;-86
2023/10/20 07:52:41;;;;;;;5.00;3.20;;;;;;;;;;6219603;23;20023;-86
2023/10/20 07:55:08;;;;;;;4.95;3.35;;;;;;;;;;6246597;23;20024;-86
2023/10/20 07:57:37;;;;;;;4.95;3.85;;;;;;;;;;6197438;23;20016;-85
2023/10/20 08:00:03;;;;;;;5.90;3.80;;;;;;;;;;6224196;23;20024;-86
2023/10/20 08:02:29;;;;;;;4.90;3.63;;;;;;;;;;6247634;23;20031;-87
2023/10/20 08:04:55;;;;;;;4.03;3.58;;;;;;;;;;6219980;23;20432;-86
2023/10/20 08:07:21;;;;;;;3.92;3.00;;;;;;;;;;6219314;23;20465;-85
2023/10/20 08:09:48;;;;;;;5.50;3.47;;;;;;;;;;6220035;23;20015;-85
2023/10/20 08:12:14;;;;;;;4.05;2.80;;;;;;;;;;6245515;23;20016;-85
2023/10/20 08:14:40;;;;;;;4.57;3.40;;;;;;;;;;6219688;23;20095;-85
2023/10/20 08:17:07;;;;;;;3.88;3.10;;;;;;;;;;6219528;23;20095;-86
2023/10/20 08:19:34;;;;;;;6.03;3.40;;;;;;;;;;6219733;23;20150;-85
2023/10/20 08:22:00;;;;;;;5.40;3.20;;;;;;;;;;6246772;23;20031;-85
2023/10/20 08:24:26;;;;;;;5.07;3.42;;;;;;;;;;6246998;23;20017;-85
2023/10/20 08:26:53;;;;;;;6.38;3.20;;;;;;;;;;6246568;23;20087;-85
2023/10/20 08:29:19;;;;;;;4.30;2.97;;;;;;;;;;6194062;23;20020;-85
2023/10/20 08:31:45;;;;;;;4.32;3.08;;;;;;;;;;6245792;23;20016;-85
2023/10/20 08:34:11;;;;;;;4.22;3.35;;;;;;;;;;6194182;23;20024;-85
2023/10/20 08:36:37;;;;;;;5.78;3.55;;;;;;;;;;6219518;23;20513;-85
2023/10/20 08:39:13;;;;;;;4.55;3.00;;;;;;;;;;6246378;23;20087;-85
2023/10/20 08:41:41;;;;;;;5.95;3.15;;;;;;;;;;6194093;23;20032;-85
2023/10/20 08:44:08;;;;;;;5.30;2.97;;;;;;;;;;6218935;23;20024;-85
2023/10/20 08:46:34;;;;;;;3.97;2.85;;;;;;;;;;6245898;23;20017;-85
2023/10/20 08:49:05;;;;;;;5.22;3.20;;;;;;;;;;6194075;23;20091;-85
2023/10/20 08:51:31;;;;;;;4.45;3.20;;;;;;;;;;6219193;23;20020;-85
2023/10/20 08:53:57;;;;;;;7.30;3.95;;;;;;;;;;6219753;23;20027;-85
2023/10/20 08:56:23;;;;;;;4.28;3.40;;;;;;;;;;6219457;23;20017;-85
2023/10/20 08:58:49;;;;;;;5.47;3.83;;;;;;;;;;6218982;23;20023;-85
2023/10/20 09:01:16;;;;;;;4.68;3.70;;;;;;;;;;6218567;23;20092;-85
2023/10/20 09:03:45;;;;;;;4.35;3.50;;;;;;;;;;6245710;23;20048;-85
2023/10/20 09:06:14;;;;;;;4.00;3.22;;;;;;;;;;6218688;23;20016;-85
2023/10/20 09:08:40;;;;;;;3.20;2.80;;;;;;;;;;6245306;23;20126;-85
2023/10/20 09:11:07;;;;;;;5.32;3.33;;;;;;;;;;6246155;23;20023;-85
2023/10/20 09:13:40;;;;;;;4.43;2.70;;;;;;;;;;6218702;23;20016;-85
2023/10/20 09:16:07;;;;;;;3.17;2.60;;;;;;;;;;6218604;23;20448;-85
2023/10/20 09:19:03;;;;;;;3.75;2.70;;;;;;;;;;6217274;23;20020;-87
2023/10/20 09:21:29;;;;;;;5.45;2.75;;;;;;;;;;6162580;23;20022;-85
2023/10/20 09:23:58;;;;;;;3.00;2.60;;;;;;;;;;6218399;23;20016;-85
2023/10/20 09:26:26;;;;;;;4.15;2.95;;;;;;;;;;6219051;23;20402;-85
2023/10/20 09:28:56;;;;;;;4.97;3.10;;;;;;;;;;6217976;23;20019;-86
2023/10/20 09:31:22;;;;;;;3.78;3.17;;;;;;;;;;6217647;23;20020;-85
2023/10/20 09:33:49;;;;;;;3.17;2.63;;;;;;;;;;6217797;23;20091;-85
2023/10/20 09:36:16;;;;;;;4.63;3.05;;;;;;;;;;6245072;23;20024;-86
2023/10/20 09:38:44;;;;;;;5.18;3.53;;;;;;;;;;6218565;23;20058;-85
2023/10/20 09:41:15;;;;;;;4.00;3.33;;;;;;;;;;6245465;23;20020;-86
2023/10/20 09:43:48;;;;;;;4.28;2.90;;;;;;;;;;6217912;23;20121;-87
2023/10/20 09:46:20;;;;;;;4.32;3.30;;;;;;;;;;6217671;23;20016;-86
2023/10/20 09:48:47;;;;;;;5.70;3.53;;;;;;;;;;6217336;23;20020;-86
2023/10/20 09:51:15;;;;;;;4.38;3.50;;;;;;;;;;6220057;23;20016;-86
2023/10/20 09:53:42;;;;;;;4.22;3.08;;;;;;;;;;6221107;23;20016;-86
2023/10/20 09:56:08;;;;;;;4.80;3.33;;;;;;;;;;6218589;23;20020;-86
2023/10/20 09:58:36;;;;;;;3.95;3.30;;;;;;;;;;6217817;23;20201;-87
2023/10/20 10:01:03;;;;;;;3.95;3.13;;;;;;;;;;6217631;23;20023;-87
2023/10/20 10:03:42;;;;;;;4.05;2.72;;;;;;;;;;6192468;23;20508;-86
2023/10/20 10:06:19;;;;;;;4.82;3.13;;;;;;;;;;6217074;23;20344;-87
2023/10/20 10:08:45;;;;;;;4.07;3.17;;;;;;;;;;6217829;23;20020;-87
2023/10/20 10:11:43;;;;;;;4.38;3.10;;;;;;;;;;6218196;23;20425;-87
2023/10/20 10:14:18;;;;;;;4.07;2.78;;;;;;;;;;6190203;23;20016;-87
2023/10/20 10:17:01;;;;;;;3.63;2.50;;;;;;;;;;6218247;23;20012;-88
2023/10/20 10:19:28;;;;;;;3.25;2.40;;;;;;;;;;6193662;23;20012;-88
2023/10/20 10:21:57;;;;;;;3.97;2.40;;;;;;;;;;6217057;23;20020;-85
2023/10/20 10:24:24;;;;;;;3.55;2.47;;;;;;;;;;6217985;23;20016;-85
2023/10/20 10:27:02;;;;;;;3.83;2.40;;;;;;;;;;6218344;23;20032;-85
2023/10/20 10:29:53;;;;;;;3.33;2.55;;;;;;;;;;6217948;23;20123;-85
2023/10/20 10:32:26;;;;;;;3.60;2.45;;;;;;;;;;6217499;23;20016;-86
2023/10/20 10:34:53;;;;;;;2.90;2.50;;;;;;;;;;6217974;23;20020;-85
2023/10/20 10:37:32;;;;;;;3.97;2.45;;;;;;;;;;6217944;23;20018;-85
2023/10/20 10:40:08;;;;;;;2.50;1.80;;;;;;;;;;6218685;23;20046;-85
2023/10/20 10:42:38;;;;;;;2.53;2.08;;;;;;;;;;6219864;23;20137;-86
2023/10/20 10:45:27;;;;;;;3.15;2.53;;;;;;;;;;6247362;23;20012;-87
2023/10/20 10:48:12;;;;;;;3.45;2.70;;;;;;;;;;6219874;23;20387;-87
2023/10/20 10:50:42;;;;;;;3.08;2.40;;;;;;;;;;6220011;23;20036;-88
2023/10/20 10:53:10;;;;;;;3.22;2.40;;;;;;;;;;6195099;23;20095;-87
2023/10/20 10:55:36;;;;;;;2.75;2.22;;;;;;;;;;6219917;23;20044;-87
2023/10/20 10:58:03;;;;;;;3.95;2.80;;;;;;;;;;6220519;23;20142;-87
2023/10/20 11:00:29;;;;;;;3.58;2.20;;;;;;;;;;6220063;23;20050;-87
2023/10/20 11:02:57;;;;;;;3.38;2.33;;;;;;;;;;6219611;23;20063;-87
2023/10/20 11:05:23;;;;;;;2.83;2.38;;;;;;;;;;6220042;23;20022;-87
2023/10/20 11:07:56;;;;;;;2.47;2.20;;;;;;;;;;6195181;23;20379;-87
2023/10/20 11:10:23;;;;;;;3.15;2.30;;;;;;;;;;6219679;23;20016;-87
2023/10/20 11:12:49;;;;;;;3.50;2.33;;;;;;;;;;6195489;23;20031;-87
2023/10/20 11:15:16;;;;;;;2.25;2.05;;;;;;;;;;6196001;23;20452;-87
2023/10/20 11:17:42;;;;;;;2.85;2.30;;;;;;;;;;6195624;23;20023;-87
2023/10/20 11:20:09;;;;;;;2.55;2.35;;;;;;;;;;6219821;23;20468;-87
2023/10/20 11:22:39;;;;;;;2.97;2.67;;;;;;;;;;6220037;23;20086;-87
2023/10/20 11:25:05;;;;;;;3.92;2.60;;;;;;;;;;6195023;23;20027;-88
2023/10/20 11:27:43;;;;;;;3.88;2.80;;;;;;;;;;6194732;23;20012;-87
2023/10/20 11:30:12;;;;;;;3.17;2.63;;;;;;;;;;6246766;23;20012;-87
2023/10/20 11:32:38;;;;;;;3.53;3.05;;;;;;;;;;6194543;23;20020;-87
2023/10/20 11:35:06;;;;;;;3.38;2.70;;;;;;;;;;6219725;23;20305;-87
2023/10/20 11:37:32;;;;;;;3.60;2.67;;;;;;;;;;6219642;23;20348;-87
2023/10/20 11:39:58;;;;;;;3.03;2.38;;;;;;;;;;6220035;23;20491;-87
2023/10/20 11:42:24;;;;;;;2.92;2.47;;;;;;;;;;6219972;23;20345;-87
2023/10/20 11:44:50;;;;;;;2.30;2.10;;;;;;;;;;6246782;23;20099;-87
2023/10/20 11:47:18;;;;;;;3.17;2.72;;;;;;;;;;6194773;23;20401;-87
2023/10/20 11:49:45;;;;;;;2.65;2.08;;;;;;;;;;6221749;23;20020;-89
2023/10/20 11:52:11;;;;;;;2.58;2.20;;;;;;;;;;6196905;23;20097;-88
2023/10/20 11:54:37;;;;;;;4.05;3.65;;;;;;;;;;6195405;23;20018;-87
2023/10/20 11:57:03;;;;;;;2.70;2.40;;;;;;;;;;6219204;23;20023;-87
2023/10/20 11:59:29;;;;;;;2.25;2.05;;;;;;;;;;6194480;23;20013;-87
2023/10/20 12:01:55;;;;;;;2.90;2.55;;;;;;;;;;6219816;23;20028;-87
2023/10/20 12:04:21;;;;;;;3.47;1.95;;;;;;;;;;6194886;23;20020;-87
2023/10/20 12:06:48;;;;;;;2.25;2.03;;;;;;;;;;6219660;23;20039;-87
2023/10/20 12:09:16;;;;;;;2.13;1.65;;;;;;;;;;6219434;23;20024;-88
2023/10/20 12:11:43;;;;;;;2.85;2.00;;;;;;;;;;6194130;23;20059;-87
2023/10/20 12:14:09;;;;;;;2.53;2.10;;;;;;;;;;6219608;23;20020;-88
2023/10/20 12:16:35;;;;;;;3.78;2.20;;;;;;;;;;6219259;23;20051;-87
2023/10/20 12:19:02;;;;;;;1.98;1.75;;;;;;;;;;6194302;23;20445;-87
2023/10/20 12:21:28;;;;;;;2.10;1.90;;;;;;;;;;6218834;23;20095;-87
2023/10/20 12:23:54;;;;;;;3.35;2.03;;;;;;;;;;6194674;23;20073;-87
2023/10/20 12:26:21;;;;;;;2.30;1.70;;;;;;;;;;6218431;23;20408;-87
2023/10/20 12:28:47;;;;;;;4.95;2.20;;;;;;;;;;6219793;23;20013;-87
2023/10/20 12:31:13;;;;;;;2.97;2.50;;;;;;;;;;6194025;23;20016;-87
2023/10/20 12:33:39;;;;;;;4.03;2.20;;;;;;;;;;6245828;23;20027;-87
2023/10/20 12:36:07;;;;;;;2.83;2.13;;;;;;;;;;6219208;23;20023;-87
2023/10/20 12:38:33;;;;;;;2.65;2.28;;;;;;;;;;6219429;23;20100;-87
2023/10/20 12:41:00;;;;;;;2.72;1.95;;;;;;;;;;6219190;23;20385;-87
2023/10/20 12:43:26;;;;;;;2.88;2.15;;;;;;;;;;6218585;23;20070;-87
2023/10/20 12:45:52;;;;;;;3.00;1.60;;;;;;;;;;6218626;23;20039;-87
2023/10/20 12:48:18;;;;;;;2.08;1.85;;;;;;;;;;6218782;23;20030;-87
2023/10/20 12:50:44;;;;;;;2.70;1.80;;;;;;;;;;6218454;23;20020;-86
2023/10/20 12:53:10;;;;;;;1.98;1.70;;;;;;;;;;6245293;23;20020;-86
2023/10/20 12:55:36;;;;;;;1.80;1.55;;;;;;;;;;6193674;23;20012;-86
2023/10/20 12:58:02;;;;;;;2.08;1.70;;;;;;;;;;6193340;23;20443;-86
2023/10/20 13:00:29;;;;;;;2.38;1.90;;;;;;;;;;6193118;23;20051;-87
2023/10/20 13:02:55;;;;;;;2.30;2.00;;;;;;;;;;6193730;23;20023;-85
2023/10/20 13:05:24;;;;;;;1.95;1.60;;;;;;;;;;6194072;23;20012;-86
2023/10/20 13:07:50;;;;;;;2.92;2.15;;;;;;;;;;6219341;23;20051;-85
2023/10/20 13:10:16;;;;;;;2.45;1.65;;;;;;;;;;6218938;23;20046;-86
2023/10/20 13:12:42;;;;;;;2.58;1.70;;;;;;;;;;6245558;23;20016;-86
2023/10/20 13:15:11;;;;;;;3.13;1.90;;;;;;;;;;6245159;23;20030;-86
2023/10/20 13:17:38;;;;;;;1.70;1.60;;;;;;;;;;6218373;23;20016;-86
2023/10/20 13:20:06;;;;;;;1.70;1.60;;;;;;;;;;6193404;23;20471;-86
2023/10/20 13:22:32;;;;;;;2.03;1.70;;;;;;;;;;6245588;23;20020;-87
2023/10/20 13:24:58;;;;;;;1.75;1.65;;;;;;;;;;6245234;23;20027;-87
2023/10/20 13:27:25;;;;;;;3.15;1.50;;;;;;;;;;6218482;23;20016;-87
2023/10/20 13:29:51;;;;;;;2.20;1.50;;;;;;;;;;6218047;23;20020;-87
2023/10/20 13:32:17;;;;;;;2.33;1.80;;;;;;;;;;6218978;23;20019;-87
2023/10/20 13:34:46;;;;;;;2.22;1.73;;;;;;;;;;6194537;23;20200;-91
2023/10/20 13:37:12;;;;;;;1.52;1.42;;;;;;;;;;6219132;23;20114;-90
2023/10/20 13:39:38;;;;;;;1.77;1.67;;;;;;;;;;6219620;23;20148;-89
2023/10/20 13:42:04;;;;;;;2.45;1.50;;;;;;;;;;6193784;23;20383;-89
2023/10/20 13:44:32;;;;;;;2.28;1.70;;;;;;;;;;6194203;23;20066;-89
2023/10/20 13:46:58;;;;;;;2.47;1.70;;;;;;;;;;6219161;23;20161;-90
2023/10/20 13:49:25;;;;;;;1.90;1.50;;;;;;;;;;6209440;23;20023;-89
2023/10/20 13:51:51;;;;;;;2.35;1.52;;;;;;;;;;6208587;23;20016;-90
2023/10/20 13:54:17;;;;;;;1.67;1.48;;;;;;;;;;6207783;23;20016;-90
2023/10/20 13:56:51;;;;;;;1.90;1.70;;;;;;;;;;6204492;23;20039;-89
2023/10/20 13:59:17;;;;;;;1.88;1.50;;;;;;;;;;6203315;23;20016;-90
2023/10/20 14:01:43;;;;;;;3.47;1.50;;;;;;;;;;6158210;23;20100;-92
2023/10/20 14:04:13;;;;;;;1.33;1.23;;;;;;;;;;6136092;23;20104;-91
2023/10/20 14:06:46;;;;;;;1.67;1.50;;;;;;;;;;6134131;23;20016;-89
2023/10/20 14:09:14;;;;;;;1.65;1.35;;;;;;;;;;6134585;23;20052;-90
2023/10/20 14:11:41;;;;;;;1.58;1.40;;;;;;;;;;6132362;23;20014;-88
2023/10/20 14:14:07;;;;;;;1.70;1.23;;;;;;;;;;6133838;23;20021;-90
2023/10/20 14:16:54;;;;;;;3.35;1.55;;;;;;;;;;6133391;23;20013;-92
2023/10/20 14:19:50;;;;;;;1.77;1.50;;;;;;;;;;6136209;23;20021;-89
2023/10/20 14:22:19;;;;;;;1.30;1.20;;;;;;;;;;6133168;23;20020;-89
2023/10/20 14:24:50;;;;;;;1.73;1.50;;;;;;;;;;6134728;23;20017;-90
2023/10/20 14:27:16;;;;;;;1.73;1.60;;;;;;;;;;6132764;23;20020;-87
2023/10/20 14:36:33;;;;;;;1.70;1.60;;;;;;;;;;6220291;23;20082;-92
2023/10/20 14:39:41;;;;;;;1.27;1.20;;;;;;;;;;6221317;23;20028;-91
2023/10/20 14:42:17;;;;;;;1.45;1.20;;;;;;;;;;6195245;23;20098;-89
2023/10/20 14:45:03;;;;;;;1.60;1.45;;;;;;;;;;6195254;23;20020;-93
2023/10/20 14:47:29;;;;;;;2.10;1.33;;;;;;;;;;6195727;23;20020;-90
2023/10/20 14:50:00;;;;;;;1.45;1.35;;;;;;;;;;6196736;23;20051;-89
2023/10/20 14:52:42;;;;;;;9.45;4.55;;;;;;;;;;6195758;23;20103;-91
2023/10/20 14:55:12;;;;;;;6.18;3.67;;;;;;;;;;6191902;23;20016;-89
2023/10/20 14:57:48;;;;;;;10.57;5.75;;;;;;;;;;6197621;23;20024;-91
2023/10/20 15:00:20;;;;;;;13.88;6.88;;;;;;;;;;6201508;23;20039;-92
2023/10/20 15:02:46;;;;;;;11.52;5.70;;;;;;;;;;6194947;23;20052;-89
2023/10/20 15:05:13;;;;;;;7.53;4.85;;;;;;;;;;6193637;23;20067;-88
2023/10/20 15:07:40;;;;;;;5.07;3.13;;;;;;;;;;6217324;23;20016;-89
2023/10/20 15:10:06;;;;;;;13.05;8.02;;;;;;;;;;6192754;23;20027;-88
2023/10/20 15:12:32;;;;;;;2.95;2.60;;;;;;;;;;6245261;23;20024;-89
2023/10/20 15:14:59;;;;;;;2.40;2.10;;;;;;;;;;6193677;23;20322;-88
2023/10/20 15:17:25;;;;;;;2.60;1.48;;;;;;;;;;6192865;23;20086;-88
2023/10/20 15:19:52;;;;;;;1.45;1.35;;;;;;;;;;6193291;23;20055;-88
2023/10/20 15:22:19;;;;;;;2.30;2.05;;;;;;;;;;6217456;23;20047;-89
2023/10/20 15:24:45;;;;;;;2.55;2.35;;;;;;;;;;6194439;23;20070;-89
2023/10/20 15:27:11;;;;;;;3.33;2.42;;;;;;;;;;6194461;23;20087;-89
2023/10/20 15:29:37;;;;;;;1.38;1.27;;;;;;;;;;6194401;23;20048;-89
2023/10/20 15:32:03;;;;;;;1.85;1.40;;;;;;;;;;6194292;23;20020;-88
2023/10/20 15:34:29;;;;;;;7.10;3.67;;;;;;;;;;6219787;23;20024;-89